sensor_id;sensor_type;location;lat;lon;timestamp;P1;P2;P0
37775;PMS5003;23614;33.774;130.514;2022-12-07T00:01:19;14;14;
37775;PMS5003;23614;33.774;130.514;2022-12-07T00:03:45;15;14;
37775;PMS5003;23614;33.774;130.514;2022-12-07T00:06:10;18;16;
37775;PMS5003;23614;33.774;130.514;2022-12-07T00:08:36;14;13;
37775;PMS5003;23614;33.774;130.514;2022-12-07T00:11:01;15;14;
37775;PMS5003;23614;33.774;130.514;2022-12-07T00:13:28;16;13;
37775;PMS5003;23614;33.774;130.514;2022-12-07T00:15:53;13;13;
37775;PMS5003;23614;33.774;130.514;2022-12-07T00:18:19;12;12;
37775;PMS5003;23614;33.774;130.514;2022-12-07T00:20:45;14;13;
37775;PMS5003;23614;33.774;130.514;2022-12-07T00:23:11;19;16;
37775;PMS5003;23614;33.774;130.514;2022-12-07T00:25:37;18;15;
37775;PMS5003;23614;33.774;130.514;2022-12-07T00:28:03;13;12;
37775;PMS5003;23614;33.774;130.514;2022-12-07T00:30:29;20;15;
37775;PMS5003;23614;33.774;130.514;2022-12-07T00:32:55;16;14;
37775;PMS5003;23614;33.774;130.514;2022-12-07T00:35:21;13;13;
37775;PMS5003;23614;33.774;130.514;2022-12-07T00:37:47;16;12;
37775;PMS5003;23614;33.774;130.514;2022-12-07T00:40:13;12;11;
37775;PMS5003;23614;33.774;130.514;2022-12-07T00:42:39;12;11;
37775;PMS5003;23614;33.774;130.514;2022-12-07T00:45:06;14;12;
37775;PMS5003;23614;33.774;130.514;2022-12-07T00:47:31;16;14;
37775;PMS5003;23614;33.774;130.514;2022-12-07T00:49:57;14;13;
37775;PMS5003;23614;33.774;130.514;2022-12-07T00:52:23;12;11;
37775;PMS5003;23614;33.774;130.514;2022-12-07T00:54:49;13;12;
37775;PMS5003;23614;33.774;130.514;2022-12-07T00:57:15;17;17;
37775;PMS5003;23614;33.774;130.514;2022-12-07T00:59:41;13;12;
37775;PMS5003;23614;33.774;130.514;2022-12-07T01:02:07;13;11;
37775;PMS5003;23614;33.774;130.514;2022-12-07T01:04:34;19;14;
37775;PMS5003;23614;33.774;130.514;2022-12-07T01:06:59;13;12;
37775;PMS5003;23614;33.774;130.514;2022-12-07T01:09:26;17;16;
37775;PMS5003;23614;33.774;130.514;2022-12-07T01:11:52;14;13;
37775;PMS5003;23614;33.774;130.514;2022-12-07T01:14:18;15;13;
37775;PMS5003;23614;33.774;130.514;2022-12-07T01:16:43;20;15;
37775;PMS5003;23614;33.774;130.514;2022-12-07T01:19:09;17;12;
37775;PMS5003;23614;33.774;130.514;2022-12-07T01:21:35;15;13;
37775;PMS5003;23614;33.774;130.514;2022-12-07T01:24:01;17;15;
37775;PMS5003;23614;33.774;130.514;2022-12-07T01:26:27;16;16;
37775;PMS5003;23614;33.774;130.514;2022-12-07T01:28:53;18;17;
37775;PMS5003;23614;33.774;130.514;2022-12-07T01:31:20;17;16;
37775;PMS5003;23614;33.774;130.514;2022-12-07T01:33:46;15;15;
37775;PMS5003;23614;33.774;130.514;2022-12-07T01:36:14;23;20;
37775;PMS5003;23614;33.774;130.514;2022-12-07T01:38:37;22;18;
37775;PMS5003;23614;33.774;130.514;2022-12-07T01:41:03;24;20;
37775;PMS5003;23614;33.774;130.514;2022-12-07T01:43:30;22;21;
37775;PMS5003;23614;33.774;130.514;2022-12-07T01:45:55;21;18;
37775;PMS5003;23614;33.774;130.514;2022-12-07T01:48:22;24;22;
37775;PMS5003;23614;33.774;130.514;2022-12-07T01:50:48;16;15;
37775;PMS5003;23614;33.774;130.514;2022-12-07T01:53:13;19;15;
37775;PMS5003;23614;33.774;130.514;2022-12-07T01:55:41;22;18;
37775;PMS5003;23614;33.774;130.514;2022-12-07T01:58:06;15;14;
37775;PMS5003;23614;33.774;130.514;2022-12-07T02:00:31;15;14;
37775;PMS5003;23614;33.774;130.514;2022-12-07T02:03:00;19;16;
37775;PMS5003;23614;33.774;130.514;2022-12-07T02:05:24;19;16;
37775;PMS5003;23614;33.774;130.514;2022-12-07T02:07:50;18;17;
37775;PMS5003;23614;33.774;130.514;2022-12-07T02:10:17;18;18;
37775;PMS5003;23614;33.774;130.514;2022-12-07T02:12:41;17;17;
37775;PMS5003;23614;33.774;130.514;2022-12-07T02:15:08;23;18;
37775;PMS5003;23614;33.774;130.514;2022-12-07T02:17:35;19;16;
37775;PMS5003;23614;33.774;130.514;2022-12-07T02:20:06;20;19;
37775;PMS5003;23614;33.774;130.514;2022-12-07T02:22:31;27;25;
37775;PMS5003;23614;33.774;130.514;2022-12-07T02:24:53;21;20;
37775;PMS5003;23614;33.774;130.514;2022-12-07T02:27:26;24;22;
37775;PMS5003;23614;33.774;130.514;2022-12-07T02:29:44;22;19;
37775;PMS5003;23614;33.774;130.514;2022-12-07T02:32:11;27;26;
37775;PMS5003;23614;33.774;130.514;2022-12-07T02:34:38;23;22;
37775;PMS5003;23614;33.774;130.514;2022-12-07T02:37:03;28;24;
37775;PMS5003;23614;33.774;130.514;2022-12-07T02:39:29;27;23;
37775;PMS5003;23614;33.774;130.514;2022-12-07T02:41:55;25;23;
37775;PMS5003;23614;33.774;130.514;2022-12-07T02:44:20;27;25;
37775;PMS5003;23614;33.774;130.514;2022-12-07T02:46:46;31;26;
37775;PMS5003;23614;33.774;130.514;2022-12-07T02:49:11;23;23;
37775;PMS5003;23614;33.774;130.514;2022-12-07T02:51:39;28;26;
37775;PMS5003;23614;33.774;130.514;2022-12-07T02:54:07;30;28;
37775;PMS5003;23614;33.774;130.514;2022-12-07T02:56:33;26;24;
37775;PMS5003;23614;33.774;130.514;2022-12-07T02:58:58;31;25;
37775;PMS5003;23614;33.774;130.514;2022-12-07T03:01:24;33;25;
37775;PMS5003;23614;33.774;130.514;2022-12-07T03:03:48;29;29;
37775;PMS5003;23614;33.774;130.514;2022-12-07T03:06:14;28;25;
37775;PMS5003;23614;33.774;130.514;2022-12-07T03:08:44;32;31;
37775;PMS5003;23614;33.774;130.514;2022-12-07T03:11:06;35;32;
37775;PMS5003;23614;33.774;130.514;2022-12-07T03:13:33;24;24;
37775;PMS5003;23614;33.774;130.514;2022-12-07T03:16:00;34;32;
37775;PMS5003;23614;33.774;130.514;2022-12-07T03:18:25;31;26;
37775;PMS5003;23614;33.774;130.514;2022-12-07T03:20:50;26;24;
37775;PMS5003;23614;33.774;130.514;2022-12-07T03:23:15;31;29;
37775;PMS5003;23614;33.774;130.514;2022-12-07T03:25:42;27;26;
37775;PMS5003;23614;33.774;130.514;2022-12-07T03:28:08;29;28;
37775;PMS5003;23614;33.774;130.514;2022-12-07T03:30:34;28;27;
37775;PMS5003;23614;33.774;130.514;2022-12-07T03:33:00;30;27;
37775;PMS5003;23614;33.774;130.514;2022-12-07T03:35:26;27;26;
37775;PMS5003;23614;33.774;130.514;2022-12-07T03:37:53;29;27;
37775;PMS5003;23614;33.774;130.514;2022-12-07T03:40:19;30;27;
37775;PMS5003;23614;33.774;130.514;2022-12-07T03:42:43;28;26;
37775;PMS5003;23614;33.774;130.514;2022-12-07T03:45:10;28;28;
37775;PMS5003;23614;33.774;130.514;2022-12-07T03:47:37;29;29;
37775;PMS5003;23614;33.774;130.514;2022-12-07T03:50:02;32;29;
37775;PMS5003;23614;33.774;130.514;2022-12-07T03:52:28;34;28;
37775;PMS5003;23614;33.774;130.514;2022-12-07T03:54:55;35;31;
37775;PMS5003;23614;33.774;130.514;2022-12-07T03:57:19;31;30;
37775;PMS5003;23614;33.774;130.514;2022-12-07T03:59:45;28;27;
37775;PMS5003;23614;33.774;130.514;2022-12-07T04:02:12;32;30;
37775;PMS5003;23614;33.774;130.514;2022-12-07T04:04:37;30;27;
37775;PMS5003;23614;33.774;130.514;2022-12-07T04:07:03;38;32;
37775;PMS5003;23614;33.774;130.514;2022-12-07T04:09:29;27;25;
37775;PMS5003;23614;33.774;130.514;2022-12-07T04:11:56;28;26;
37775;PMS5003;23614;33.774;130.514;2022-12-07T04:14:21;28;26;
37775;PMS5003;23614;33.774;130.514;2022-12-07T04:16:49;35;28;
37775;PMS5003;23614;33.774;130.514;2022-12-07T04:19:13;26;26;
37775;PMS5003;23614;33.774;130.514;2022-12-07T04:21:40;36;30;
37775;PMS5003;23614;33.774;130.514;2022-12-07T04:24:05;30;29;
37775;PMS5003;23614;33.774;130.514;2022-12-07T04:26:31;29;27;
37775;PMS5003;23614;33.774;130.514;2022-12-07T04:28:57;35;31;
37775;PMS5003;23614;33.774;130.514;2022-12-07T04:31:23;30;28;
37775;PMS5003;23614;33.774;130.514;2022-12-07T04:33:49;33;29;
37775;PMS5003;23614;33.774;130.514;2022-12-07T04:36:15;27;26;
37775;PMS5003;23614;33.774;130.514;2022-12-07T04:38:41;29;26;
37775;PMS5003;23614;33.774;130.514;2022-12-07T04:41:08;33;28;
37775;PMS5003;23614;33.774;130.514;2022-12-07T04:43:33;34;31;
37775;PMS5003;23614;33.774;130.514;2022-12-07T04:45:59;31;27;
37775;PMS5003;23614;33.774;130.514;2022-12-07T04:48:25;33;32;
37775;PMS5003;23614;33.774;130.514;2022-12-07T04:50:52;35;32;
37775;PMS5003;23614;33.774;130.514;2022-12-07T04:53:17;29;27;
37775;PMS5003;23614;33.774;130.514;2022-12-07T04:55:44;35;30;
37775;PMS5003;23614;33.774;130.514;2022-12-07T04:58:09;33;30;
37775;PMS5003;23614;33.774;130.514;2022-12-07T05:00:35;30;28;
37775;PMS5003;23614;33.774;130.514;2022-12-07T05:03:01;36;34;
37775;PMS5003;23614;33.774;130.514;2022-12-07T05:05:27;34;32;
37775;PMS5003;23614;33.774;130.514;2022-12-07T05:07:53;40;34;
37775;PMS5003;23614;33.774;130.514;2022-12-07T05:10:19;35;32;
37775;PMS5003;23614;33.774;130.514;2022-12-07T05:12:45;35;33;
37775;PMS5003;23614;33.774;130.514;2022-12-07T05:15:11;35;34;
37775;PMS5003;23614;33.774;130.514;2022-12-07T05:17:38;34;34;
37775;PMS5003;23614;33.774;130.514;2022-12-07T05:20:04;34;29;
37775;PMS5003;23614;33.774;130.514;2022-12-07T05:22:29;40;37;
37775;PMS5003;23614;33.774;130.514;2022-12-07T05:24:55;34;32;
37775;PMS5003;23614;33.774;130.514;2022-12-07T05:27:22;40;35;
37775;PMS5003;23614;33.774;130.514;2022-12-07T05:29:47;42;37;
37775;PMS5003;23614;33.774;130.514;2022-12-07T05:32:13;40;39;
37775;PMS5003;23614;33.774;130.514;2022-12-07T05:34:39;34;31;
37775;PMS5003;23614;33.774;130.514;2022-12-07T05:37:05;38;35;
37775;PMS5003;23614;33.774;130.514;2022-12-07T05:39:31;36;31;
37775;PMS5003;23614;33.774;130.514;2022-12-07T05:41:57;37;35;
37775;PMS5003;23614;33.774;130.514;2022-12-07T05:44:23;39;33;
37775;PMS5003;23614;33.774;130.514;2022-12-07T05:46:49;35;33;
37775;PMS5003;23614;33.774;130.514;2022-12-07T05:49:15;34;32;
37775;PMS5003;23614;33.774;130.514;2022-12-07T05:51:41;34;33;
37775;PMS5003;23614;33.774;130.514;2022-12-07T05:54:07;35;32;
37775;PMS5003;23614;33.774;130.514;2022-12-07T05:56:33;33;30;
37775;PMS5003;23614;33.774;130.514;2022-12-07T05:58:59;35;33;
37775;PMS5003;23614;33.774;130.514;2022-12-07T06:01:25;42;40;
37775;PMS5003;23614;33.774;130.514;2022-12-07T06:03:51;34;30;
37775;PMS5003;23614;33.774;130.514;2022-12-07T06:06:17;41;36;
37775;PMS5003;23614;33.774;130.514;2022-12-07T06:08:43;48;42;
37775;PMS5003;23614;33.774;130.514;2022-12-07T06:11:09;40;35;
37775;PMS5003;23614;33.774;130.514;2022-12-07T06:13:35;51;42;
37775;PMS5003;23614;33.774;130.514;2022-12-07T06:16:01;37;33;
37775;PMS5003;23614;33.774;130.514;2022-12-07T06:18:28;46;43;
37775;PMS5003;23614;33.774;130.514;2022-12-07T06:20:53;39;36;
37775;PMS5003;23614;33.774;130.514;2022-12-07T06:23:19;40;36;
37775;PMS5003;23614;33.774;130.514;2022-12-07T06:25:46;39;37;
37775;PMS5003;23614;33.774;130.514;2022-12-07T06:28:11;42;36;
37775;PMS5003;23614;33.774;130.514;2022-12-07T06:30:36;38;35;
37775;PMS5003;23614;33.774;130.514;2022-12-07T06:33:02;46;43;
37775;PMS5003;23614;33.774;130.514;2022-12-07T06:35:28;48;43;
37775;PMS5003;23614;33.774;130.514;2022-12-07T06:37:54;47;42;
37775;PMS5003;23614;33.774;130.514;2022-12-07T06:40:20;39;37;
37775;PMS5003;23614;33.774;130.514;2022-12-07T06:42:46;44;41;
37775;PMS5003;23614;33.774;130.514;2022-12-07T06:45:12;38;36;
37775;PMS5003;23614;33.774;130.514;2022-12-07T06:47:38;45;40;
37775;PMS5003;23614;33.774;130.514;2022-12-07T06:50:05;49;44;
37775;PMS5003;23614;33.774;130.514;2022-12-07T06:52:31;48;46;
37775;PMS5003;23614;33.774;130.514;2022-12-07T06:54:56;44;41;
37775;PMS5003;23614;33.774;130.514;2022-12-07T06:57:22;48;43;
37775;PMS5003;23614;33.774;130.514;2022-12-07T06:59:48;48;46;
37775;PMS5003;23614;33.774;130.514;2022-12-07T07:02:14;44;40;
37775;PMS5003;23614;33.774;130.514;2022-12-07T07:04:40;47;42;
37775;PMS5003;23614;33.774;130.514;2022-12-07T07:07:06;45;44;
37775;PMS5003;23614;33.774;130.514;2022-12-07T07:09:32;44;41;
37775;PMS5003;23614;33.774;130.514;2022-12-07T07:11:58;41;39;
37775;PMS5003;23614;33.774;130.514;2022-12-07T07:14:24;43;41;
37775;PMS5003;23614;33.774;130.514;2022-12-07T07:16:50;43;41;
37775;PMS5003;23614;33.774;130.514;2022-12-07T07:19:16;44;43;
37775;PMS5003;23614;33.774;130.514;2022-12-07T07:21:43;41;37;
37775;PMS5003;23614;33.774;130.514;2022-12-07T07:24:08;41;34;
37775;PMS5003;23614;33.774;130.514;2022-12-07T07:26:34;47;42;
37775;PMS5003;23614;33.774;130.514;2022-12-07T07:29:01;40;38;
37775;PMS5003;23614;33.774;130.514;2022-12-07T07:31:26;42;38;
37775;PMS5003;23614;33.774;130.514;2022-12-07T07:33:52;44;40;
37775;PMS5003;23614;33.774;130.514;2022-12-07T07:36:18;41;37;
37775;PMS5003;23614;33.774;130.514;2022-12-07T07:38:44;48;43;
37775;PMS5003;23614;33.774;130.514;2022-12-07T07:41:11;44;40;
37775;PMS5003;23614;33.774;130.514;2022-12-07T07:43:37;42;41;
37775;PMS5003;23614;33.774;130.514;2022-12-07T07:46:02;41;40;
37775;PMS5003;23614;33.774;130.514;2022-12-07T07:48:28;37;35;
37775;PMS5003;23614;33.774;130.514;2022-12-07T07:50:54;36;34;
37775;PMS5003;23614;33.774;130.514;2022-12-07T07:53:20;42;39;
37775;PMS5003;23614;33.774;130.514;2022-12-07T07:55:50;37;35;
37775;PMS5003;23614;33.774;130.514;2022-12-07T07:58:12;39;37;
37775;PMS5003;23614;33.774;130.514;2022-12-07T08:00:38;40;38;
37775;PMS5003;23614;33.774;130.514;2022-12-07T08:03:05;35;33;
37775;PMS5003;23614;33.774;130.514;2022-12-07T08:05:30;44;43;
37775;PMS5003;23614;33.774;130.514;2022-12-07T08:07:57;46;40;
37775;PMS5003;23614;33.774;130.514;2022-12-07T08:10:22;50;47;
37775;PMS5003;23614;33.774;130.514;2022-12-07T08:12:48;52;48;
37775;PMS5003;23614;33.774;130.514;2022-12-07T08:15:14;54;51;
37775;PMS5003;23614;33.774;130.514;2022-12-07T08:17:40;50;45;
37775;PMS5003;23614;33.774;130.514;2022-12-07T08:20:07;54;49;
37775;PMS5003;23614;33.774;130.514;2022-12-07T08:22:32;48;46;
37775;PMS5003;23614;33.774;130.514;2022-12-07T08:24:59;58;52;
37775;PMS5003;23614;33.774;130.514;2022-12-07T08:27:25;52;47;
37775;PMS5003;23614;33.774;130.514;2022-12-07T08:29:51;55;51;
37775;PMS5003;23614;33.774;130.514;2022-12-07T08:32:17;53;49;
37775;PMS5003;23614;33.774;130.514;2022-12-07T08:34:42;59;54;
37775;PMS5003;23614;33.774;130.514;2022-12-07T08:37:08;56;50;
37775;PMS5003;23614;33.774;130.514;2022-12-07T08:39:34;58;51;
37775;PMS5003;23614;33.774;130.514;2022-12-07T08:42:00;57;50;
37775;PMS5003;23614;33.774;130.514;2022-12-07T08:44:26;56;51;
37775;PMS5003;23614;33.774;130.514;2022-12-07T08:46:53;56;51;
37775;PMS5003;23614;33.774;130.514;2022-12-07T08:49:19;46;46;
37775;PMS5003;23614;33.774;130.514;2022-12-07T08:51:49;53;47;
37775;PMS5003;23614;33.774;130.514;2022-12-07T08:54:11;58;53;
37775;PMS5003;23614;33.774;130.514;2022-12-07T08:56:36;53;49;
37775;PMS5003;23614;33.774;130.514;2022-12-07T08:59:02;49;41;
37775;PMS5003;23614;33.774;130.514;2022-12-07T09:01:28;43;43;
37775;PMS5003;23614;33.774;130.514;2022-12-07T09:03:54;55;53;
37775;PMS5003;23614;33.774;130.514;2022-12-07T09:06:20;54;45;
37775;PMS5003;23614;33.774;130.514;2022-12-07T09:08:47;49;46;
37775;PMS5003;23614;33.774;130.514;2022-12-07T09:11:12;50;45;
37775;PMS5003;23614;33.774;130.514;2022-12-07T09:13:38;53;45;
37775;PMS5003;23614;33.774;130.514;2022-12-07T09:16:04;52;46;
37775;PMS5003;23614;33.774;130.514;2022-12-07T09:18:31;55;48;
37775;PMS5003;23614;33.774;130.514;2022-12-07T09:20:56;51;42;
37775;PMS5003;23614;33.774;130.514;2022-12-07T09:23:22;50;46;
37775;PMS5003;23614;33.774;130.514;2022-12-07T09:25:49;56;49;
37775;PMS5003;23614;33.774;130.514;2022-12-07T09:28:15;45;42;
37775;PMS5003;23614;33.774;130.514;2022-12-07T09:30:45;45;43;
37775;PMS5003;23614;33.774;130.514;2022-12-07T09:33:07;53;49;
37775;PMS5003;23614;33.774;130.514;2022-12-07T09:35:32;51;46;
37775;PMS5003;23614;33.774;130.514;2022-12-07T09:37:58;57;47;
37775;PMS5003;23614;33.774;130.514;2022-12-07T09:40:25;49;45;
37775;PMS5003;23614;33.774;130.514;2022-12-07T09:42:51;57;52;
37775;PMS5003;23614;33.774;130.514;2022-12-07T09:45:18;48;44;
37775;PMS5003;23614;33.774;130.514;2022-12-07T09:47:42;56;50;
37775;PMS5003;23614;33.774;130.514;2022-12-07T09:50:11;50;44;
37775;PMS5003;23614;33.774;130.514;2022-12-07T09:52:35;49;47;
37775;PMS5003;23614;33.774;130.514;2022-12-07T09:55:00;55;50;
37775;PMS5003;23614;33.774;130.514;2022-12-07T09:57:28;52;46;
37775;PMS5003;23614;33.774;130.514;2022-12-07T09:59:52;48;45;
37775;PMS5003;23614;33.774;130.514;2022-12-07T10:02:23;54;49;
37775;PMS5003;23614;33.774;130.514;2022-12-07T10:04:44;52;46;
37775;PMS5003;23614;33.774;130.514;2022-12-07T10:07:10;48;45;
37775;PMS5003;23614;33.774;130.514;2022-12-07T10:09:36;50;47;
37775;PMS5003;23614;33.774;130.514;2022-12-07T10:12:04;56;50;
37775;PMS5003;23614;33.774;130.514;2022-12-07T10:14:29;58;52;
37775;PMS5003;23614;33.774;130.514;2022-12-07T10:16:54;47;44;
37775;PMS5003;23614;33.774;130.514;2022-12-07T10:19:22;39;37;
37775;PMS5003;23614;33.774;130.514;2022-12-07T10:21:59;49;45;
37775;PMS5003;23614;33.774;130.514;2022-12-07T10:24:14;46;42;
37775;PMS5003;23614;33.774;130.514;2022-12-07T10:26:40;48;46;
37775;PMS5003;23614;33.774;130.514;2022-12-07T10:29:12;48;46;
37775;PMS5003;23614;33.774;130.514;2022-12-07T10:31:31;45;40;
37775;PMS5003;23614;33.774;130.514;2022-12-07T10:33:57;41;39;
37775;PMS5003;23614;33.774;130.514;2022-12-07T10:36:24;48;44;
37775;PMS5003;23614;33.774;130.514;2022-12-07T10:38:49;46;43;
37775;PMS5003;23614;33.774;130.514;2022-12-07T10:41:14;52;48;
37775;PMS5003;23614;33.774;130.514;2022-12-07T10:43:46;46;40;
37775;PMS5003;23614;33.774;130.514;2022-12-07T10:46:10;46;43;
37775;PMS5003;23614;33.774;130.514;2022-12-07T10:48:33;51;47;
37775;PMS5003;23614;33.774;130.514;2022-12-07T10:51:00;47;45;
37775;PMS5003;23614;33.774;130.514;2022-12-07T10:53:34;54;51;
37775;PMS5003;23614;33.774;130.514;2022-12-07T10:55:58;52;49;
37775;PMS5003;23614;33.774;130.514;2022-12-07T10:58:20;51;47;
37775;PMS5003;23614;33.774;130.514;2022-12-07T11:00:43;49;46;
37775;PMS5003;23614;33.774;130.514;2022-12-07T11:03:28;55;47;
37775;PMS5003;23614;33.774;130.514;2022-12-07T11:05:36;49;47;
37775;PMS5003;23614;33.774;130.514;2022-12-07T11:08:03;46;43;
37775;PMS5003;23614;33.774;130.514;2022-12-07T11:13:01;53;49;
37775;PMS5003;23614;33.774;130.514;2022-12-07T11:15:19;46;41;
37775;PMS5003;23614;33.774;130.514;2022-12-07T11:17:47;49;45;
37775;PMS5003;23614;33.774;130.514;2022-12-07T11:20:14;47;42;
37775;PMS5003;23614;33.774;130.514;2022-12-07T11:22:38;45;40;
37775;PMS5003;23614;33.774;130.514;2022-12-07T11:25:09;44;41;
37775;PMS5003;23614;33.774;130.514;2022-12-07T11:27:30;55;51;
37775;PMS5003;23614;33.774;130.514;2022-12-07T11:29:59;48;45;
37775;PMS5003;23614;33.774;130.514;2022-12-07T11:32:22;53;50;
37775;PMS5003;23614;33.774;130.514;2022-12-07T11:34:49;49;45;
37775;PMS5003;23614;33.774;130.514;2022-12-07T11:37:13;50;44;
37775;PMS5003;23614;33.774;130.514;2022-12-07T11:39:41;53;46;
37775;PMS5003;23614;33.774;130.514;2022-12-07T11:42:05;53;47;
37775;PMS5003;23614;33.774;130.514;2022-12-07T11:44:32;55;50;
37775;PMS5003;23614;33.774;130.514;2022-12-07T11:46:58;54;46;
37775;PMS5003;23614;33.774;130.514;2022-12-07T11:49:26;47;42;
37775;PMS5003;23614;33.774;130.514;2022-12-07T11:51:48;51;44;
37775;PMS5003;23614;33.774;130.514;2022-12-07T11:54:15;48;46;
37775;PMS5003;23614;33.774;130.514;2022-12-07T11:56:40;49;45;
37775;PMS5003;23614;33.774;130.514;2022-12-07T11:59:08;49;41;
37775;PMS5003;23614;33.774;130.514;2022-12-07T12:01:37;36;32;
37775;PMS5003;23614;33.774;130.514;2022-12-07T12:04:00;42;37;
37775;PMS5003;23614;33.774;130.514;2022-12-07T12:06:24;42;39;
37775;PMS5003;23614;33.774;130.514;2022-12-07T12:08:51;40;37;
37775;PMS5003;23614;33.774;130.514;2022-12-07T12:11:19;39;39;
37775;PMS5003;23614;33.774;130.514;2022-12-07T12:13:48;42;38;
37775;PMS5003;23614;33.774;130.514;2022-12-07T12:16:13;39;32;
37775;PMS5003;23614;33.774;130.514;2022-12-07T12:18:39;37;36;
37775;PMS5003;23614;33.774;130.514;2022-12-07T12:21:02;48;44;
37775;PMS5003;23614;33.774;130.514;2022-12-07T12:23:27;43;38;
37775;PMS5003;23614;33.774;130.514;2022-12-07T12:25:52;38;32;
37775;PMS5003;23614;33.774;130.514;2022-12-07T12:28:21;35;32;
37775;PMS5003;23614;33.774;130.514;2022-12-07T12:30:44;30;28;
37775;PMS5003;23614;33.774;130.514;2022-12-07T12:33:13;37;30;
37775;PMS5003;23614;33.774;130.514;2022-12-07T12:35:37;37;33;
37775;PMS5003;23614;33.774;130.514;2022-12-07T12:38:47;26;25;
37775;PMS5003;23614;33.774;130.514;2022-12-07T12:40:44;32;26;
37775;PMS5003;23614;33.774;130.514;2022-12-07T12:42:55;26;25;
37775;PMS5003;23614;33.774;130.514;2022-12-07T12:45:21;32;30;
37775;PMS5003;23614;33.774;130.514;2022-12-07T12:47:54;29;26;
37775;PMS5003;23614;33.774;130.514;2022-12-07T12:50:17;36;31;
37775;PMS5003;23614;33.774;130.514;2022-12-07T12:52:47;32;29;
37775;PMS5003;23614;33.774;130.514;2022-12-07T12:55:12;29;27;
37775;PMS5003;23614;33.774;130.514;2022-12-07T12:57:31;34;29;
37775;PMS5003;23614;33.774;130.514;2022-12-07T12:59:57;34;26;
37775;PMS5003;23614;33.774;130.514;2022-12-07T13:02:23;36;34;
37775;PMS5003;23614;33.774;130.514;2022-12-07T13:04:50;28;27;
37775;PMS5003;23614;33.774;130.514;2022-12-07T13:07:47;30;29;
37775;PMS5003;23614;33.774;130.514;2022-12-07T13:09:42;44;33;
37775;PMS5003;23614;33.774;130.514;2022-12-07T13:12:11;31;29;
37775;PMS5003;23614;33.774;130.514;2022-12-07T13:14:42;33;30;
37775;PMS5003;23614;33.774;130.514;2022-12-07T13:16:58;32;31;
37775;PMS5003;23614;33.774;130.514;2022-12-07T13:19:57;25;25;
37775;PMS5003;23614;33.774;130.514;2022-12-07T13:21:51;35;30;
37775;PMS5003;23614;33.774;130.514;2022-12-07T13:24:16;31;28;
37775;PMS5003;23614;33.774;130.514;2022-12-07T13:26:43;27;25;
37775;PMS5003;23614;33.774;130.514;2022-12-07T13:29:11;33;28;
37775;PMS5003;23614;33.774;130.514;2022-12-07T13:31:35;37;31;
37775;PMS5003;23614;33.774;130.514;2022-12-07T13:34:00;31;26;
37775;PMS5003;23614;33.774;130.514;2022-12-07T13:36:27;30;27;
37775;PMS5003;23614;33.774;130.514;2022-12-07T13:38:55;29;28;
37775;PMS5003;23614;33.774;130.514;2022-12-07T13:41:19;31;27;
37775;PMS5003;23614;33.774;130.514;2022-12-07T13:43:46;34;31;
37775;PMS5003;23614;33.774;130.514;2022-12-07T13:46:11;29;28;
37775;PMS5003;23614;33.774;130.514;2022-12-07T13:48:42;28;25;
37775;PMS5003;23614;33.774;130.514;2022-12-07T13:51:03;36;33;
37775;PMS5003;23614;33.774;130.514;2022-12-07T13:53:28;27;27;
37775;PMS5003;23614;33.774;130.514;2022-12-07T13:55:55;30;26;
37775;PMS5003;23614;33.774;130.514;2022-12-07T13:58:20;33;30;
37775;PMS5003;23614;33.774;130.514;2022-12-07T14:00:46;28;24;
37775;PMS5003;23614;33.774;130.514;2022-12-07T14:03:29;29;26;
37775;PMS5003;23614;33.774;130.514;2022-12-07T14:05:38;26;23;
37775;PMS5003;23614;33.774;130.514;2022-12-07T14:08:05;28;27;
37775;PMS5003;23614;33.774;130.514;2022-12-07T14:10:31;32;28;
37775;PMS5003;23614;33.774;130.514;2022-12-07T14:12:56;23;22;
37775;PMS5003;23614;33.774;130.514;2022-12-07T14:15:23;20;19;
37775;PMS5003;23614;33.774;130.514;2022-12-07T14:17:52;27;25;
37775;PMS5003;23614;33.774;130.514;2022-12-07T14:22:40;25;23;
37775;PMS5003;23614;33.774;130.514;2022-12-07T14:25:22;28;25;
37775;PMS5003;23614;33.774;130.514;2022-12-07T14:27:33;31;28;
37775;PMS5003;23614;33.774;130.514;2022-12-07T14:29:58;25;23;
37775;PMS5003;23614;33.774;130.514;2022-12-07T14:32:25;24;21;
37775;PMS5003;23614;33.774;130.514;2022-12-07T14:34:54;28;23;
37775;PMS5003;23614;33.774;130.514;2022-12-07T14:37:16;26;25;
37775;PMS5003;23614;33.774;130.514;2022-12-07T14:39:43;30;27;
37775;PMS5003;23614;33.774;130.514;2022-12-07T14:42:08;26;24;
37775;PMS5003;23614;33.774;130.514;2022-12-07T14:44:34;30;27;
37775;PMS5003;23614;33.774;130.514;2022-12-07T14:47:01;31;31;
37775;PMS5003;23614;33.774;130.514;2022-12-07T14:49:27;29;28;
37775;PMS5003;23614;33.774;130.514;2022-12-07T14:51:52;30;26;
37775;PMS5003;23614;33.774;130.514;2022-12-07T14:54:19;30;28;
37775;PMS5003;23614;33.774;130.514;2022-12-07T14:56:45;35;31;
37775;PMS5003;23614;33.774;130.514;2022-12-07T14:59:10;24;23;
37775;PMS5003;23614;33.774;130.514;2022-12-07T15:01:36;29;23;
37775;PMS5003;23614;33.774;130.514;2022-12-07T15:04:02;36;32;
37775;PMS5003;23614;33.774;130.514;2022-12-07T15:06:29;29;26;
37775;PMS5003;23614;33.774;130.514;2022-12-07T15:08:54;27;24;
37775;PMS5003;23614;33.774;130.514;2022-12-07T15:11:22;25;23;
37775;PMS5003;23614;33.774;130.514;2022-12-07T15:13:46;31;31;
37775;PMS5003;23614;33.774;130.514;2022-12-07T15:16:13;26;22;
37775;PMS5003;23614;33.774;130.514;2022-12-07T15:18:38;26;25;
37775;PMS5003;23614;33.774;130.514;2022-12-07T15:21:04;24;23;
37775;PMS5003;23614;33.774;130.514;2022-12-07T15:23:30;24;22;
37775;PMS5003;23614;33.774;130.514;2022-12-07T15:25:57;25;23;
37775;PMS5003;23614;33.774;130.514;2022-12-07T15:28:22;23;21;
37775;PMS5003;23614;33.774;130.514;2022-12-07T15:30:48;35;32;
37775;PMS5003;23614;33.774;130.514;2022-12-07T15:33:14;33;32;
37775;PMS5003;23614;33.774;130.514;2022-12-07T15:35:40;36;33;
37775;PMS5003;23614;33.774;130.514;2022-12-07T15:38:06;26;24;
37775;PMS5003;23614;33.774;130.514;2022-12-07T15:40:35;37;35;
37775;PMS5003;23614;33.774;130.514;2022-12-07T15:42:58;27;24;